This is the latest recevied weather packets stored in our database for station/object DC4THF-13. If no packets are shown the sender has not sent any weather packets the latest 10 day(s).
| Time | Temp. | Humidity | Pressure | Rain* | Wind** | Luminosity | Snow |
|---|---|---|---|---|---|---|---|
| 1777215176 | 16.11° C | 22% | 1018.7 hPa | 0 mm | - | - | - |
| 1777214572 | 16.67° C | 23% | 1018.6 hPa | 0 mm | - | - | - |
| 1777213968 | 16.11° C | 24% | 1018.6 hPa | 0 mm | - | - | - |
| 1777213364 | 16.11° C | 24% | 1018.6 hPa | 0 mm | - | - | - |
| 1777212760 | 15.56° C | 25% | 1018.7 hPa | 0 mm | - | - | - |
| 1777212156 | 16.11° C | 24% | 1018.6 hPa | 0 mm | - | - | - |
| 1777211552 | 16.11° C | 25% | 1018.7 hPa | 0 mm | - | - | - |
| 1777210948 | 16.67° C | 25% | 1018.7 hPa | 0 mm | - | - | - |
| 1777210344 | 16.67° C | 25% | 1018.7 hPa | 0 mm | - | - | - |
| 1777209741 | 16.11° C | 25% | 1018.9 hPa | 0 mm | - | - | - |
| 1777209137 | 17.22° C | 22% | 1018.8 hPa | 0 mm | - | - | - |
| 1777208593 | 16.11° C | 24% | 1018.8 hPa | 0 mm | - | - | - |
| 1777207989 | 15.56° C | 26% | 1018.9 hPa | 0 mm | - | - | - |
| 1777207385 | 15.56° C | 27% | 1019 hPa | 0 mm | - | - | - |
| 1777206782 | 15° C | 29% | 1019.1 hPa | 0 mm | - | - | - |
| 1777206178 | 14.44° C | 30% | 1019.1 hPa | 0 mm | - | - | - |
| 1777205574 | 15.56° C | 27% | 1019.2 hPa | 0 mm | - | - | - |
| 1777204971 | 16.11° C | 23% | 1019.2 hPa | 0 mm | - | - | - |
| 1777204368 | 15.56° C | 26% | 1019.1 hPa | 0 mm | - | - | - |
| 1777203764 | 15.56° C | 30% | 1019.2 hPa | 0 mm | - | - | - |
| 1777203161 | 14.44° C | 31% | 1019.2 hPa | 0 mm | - | - | - |
| 1777202558 | 15.56° C | 25% | 1019.2 hPa | 0 mm | - | - | - |
| 1777201955 | 15° C | 30% | 1019.2 hPa | 0 mm | - | - | - |
| 1777201352 | 13.33° C | 30% | 1019.3 hPa | 0 mm | - | - | - |
| 1777200749 | 15° C | 29% | 1019.2 hPa | 0 mm | - | - | - |
* Rain latest hour (hover to see other rain measurements)
** Current wind speed in m/s (hover to see current wind gust speed)